sensor_id;sensor_type;location;lat;lon;timestamp;pressure;altitude;pressure_sealevel;temperature;humidity
52797;BME280;38666;43.348;12.584;2023-04-24T08:49:37;94989.69;;;14.85;87.19
52797;BME280;38666;43.348;12.584;2023-04-24T08:52:04;94976.03;;;15.16;87.38
52797;BME280;38666;43.348;12.584;2023-04-24T08:54:31;94970.59;;;15.03;86.21
52797;BME280;38666;43.348;12.584;2023-04-24T08:56:59;94971.16;;;15.21;85.08
52797;BME280;38666;43.348;12.584;2023-04-24T08:59:29;94971.75;;;14.80;87.76
52797;BME280;38666;43.348;12.584;2023-04-24T09:01:56;94966.38;;;14.41;91.78
52797;BME280;38666;43.348;12.584;2023-04-24T09:04:22;94966.44;;;13.89;90.97
52797;BME280;38666;43.348;12.584;2023-04-24T09:06:50;94967.88;;;13.38;97.22
52797;BME280;38666;43.348;12.584;2023-04-24T09:09:17;94974.66;;;13.63;90.62
52797;BME280;38666;43.348;12.584;2023-04-24T09:11:44;94981.47;;;13.97;92.89
52797;BME280;38666;43.348;12.584;2023-04-24T09:14:10;94982.56;;;14.00;93.65
52797;BME280;38666;43.348;12.584;2023-04-24T09:16:36;94965.97;;;14.03;92.58
52797;BME280;38666;43.348;12.584;2023-04-24T09:19:01;94973.56;;;13.99;92.60
52797;BME280;38666;43.348;12.584;2023-04-24T09:21:32;94958.66;;;14.49;89.00
52797;BME280;38666;43.348;12.584;2023-04-24T09:24:00;94964.44;;;14.64;88.52
52797;BME280;38666;43.348;12.584;2023-04-24T09:26:29;94962.50;;;14.51;87.41
52797;BME280;38666;43.348;12.584;2023-04-24T09:28:56;94962.50;;;15.22;82.12
52797;BME280;38666;43.348;12.584;2023-04-24T09:31:21;94959.00;;;15.53;80.08
52797;BME280;38666;43.348;12.584;2023-04-24T09:39:00;94973.97;;;14.85;87.69
52797;BME280;38666;43.348;12.584;2023-04-24T09:41:27;94967.59;;;14.40;84.26
52797;BME280;38666;43.348;12.584;2023-04-24T09:43:54;94991.16;;;13.89;84.05
52797;BME280;38666;43.348;12.584;2023-04-24T09:46:20;94987.75;;;13.42;86.10
52797;BME280;38666;43.348;12.584;2023-04-24T09:48:47;94971.66;;;13.01;92.23
52797;BME280;38666;43.348;12.584;2023-04-24T09:51:13;94968.38;;;13.06;91.44
52797;BME280;38666;43.348;12.584;2023-04-24T09:53:45;94980.47;;;13.22;89.29
52797;BME280;38666;43.348;12.584;2023-04-24T09:56:11;94995.63;;;12.97;89.39
52797;BME280;38666;43.348;12.584;2023-04-24T09:58:40;94994.75;;;13.00;91.08
52797;BME280;38666;43.348;12.584;2023-04-24T10:01:06;94986.44;;;13.46;87.43
52797;BME280;38666;43.348;12.584;2023-04-24T10:03:32;94990.47;;;13.84;84.53
52797;BME280;38666;43.348;12.584;2023-04-24T10:06:02;94977.97;;;14.10;84.72
52797;BME280;38666;43.348;12.584;2023-04-24T10:08:34;94982.22;;;14.37;82.77
52797;BME280;38666;43.348;12.584;2023-04-24T10:11:00;94971.34;;;14.33;81.34
52797;BME280;38666;43.348;12.584;2023-04-24T10:13:31;94954.41;;;14.35;85.03
52797;BME280;38666;43.348;12.584;2023-04-24T10:16:08;94970.28;;;15.01;81.91
52797;BME280;38666;43.348;12.584;2023-04-24T10:18:51;94953.72;;;14.92;82.95
52797;BME280;38666;43.348;12.584;2023-04-24T10:21:17;94960.09;;;15.34;81.80
52797;BME280;38666;43.348;12.584;2023-04-24T10:37:22;94931.69;;;16.10;70.26
52797;BME280;38666;43.348;12.584;2023-04-24T10:39:48;94945.78;;;16.03;69.60
52797;BME280;38666;43.348;12.584;2023-04-24T10:42:16;94936.53;;;15.96;69.25
52797;BME280;38666;43.348;12.584;2023-04-24T10:44:42;94943.69;;;16.26;68.45
52797;BME280;38666;43.348;12.584;2023-04-24T10:47:13;94932.41;;;16.89;66.32
52797;BME280;38666;43.348;12.584;2023-04-24T10:49:39;94925.63;;;17.37;63.12
52797;BME280;38666;43.348;12.584;2023-04-24T10:52:05;94932.34;;;17.45;63.71
52797;BME280;38666;43.348;12.584;2023-04-24T10:54:49;94925.63;;;17.37;59.29
52797;BME280;38666;43.348;12.584;2023-04-24T11:00:29;94920.13;;;17.18;58.47
52797;BME280;38666;43.348;12.584;2023-04-24T11:02:38;94921.94;;;17.84;57.22
52797;BME280;38666;43.348;12.584;2023-04-24T11:05:08;94918.97;;;17.63;57.27
52797;BME280;38666;43.348;12.584;2023-04-24T11:10:44;94917.38;;;17.80;50.28
52797;BME280;38666;43.348;12.584;2023-04-24T11:13:09;94916.09;;;17.48;51.59
52797;BME280;38666;43.348;12.584;2023-04-24T11:15:35;94911.78;;;17.90;49.38
52797;BME280;38666;43.348;12.584;2023-04-24T11:18:01;94916.75;;;18.59;49.04
52797;BME280;38666;43.348;12.584;2023-04-24T11:20:26;94912.66;;;18.94;46.70
52797;BME280;38666;43.348;12.584;2023-04-24T11:22:53;94923.41;;;19.32;44.16
52797;BME280;38666;43.348;12.584;2023-04-24T11:25:21;94929.53;;;18.57;45.16
52797;BME280;38666;43.348;12.584;2023-04-24T11:27:47;94942.78;;;18.92;45.73
52797;BME280;38666;43.348;12.584;2023-04-24T11:30:19;94938.81;;;19.08;45.29
52797;BME280;38666;43.348;12.584;2023-04-24T11:32:48;94936.22;;;20.11;44.65
52797;BME280;38666;43.348;12.584;2023-04-24T11:35:20;94940.63;;;20.38;43.82
52797;BME280;38666;43.348;12.584;2023-04-24T11:37:49;94955.94;;;21.44;40.53
52797;BME280;38666;43.348;12.584;2023-04-24T11:40:16;94954.53;;;21.27;38.71
52797;BME280;38666;43.348;12.584;2023-04-24T11:42:43;94947.41;;;20.01;40.87
52797;BME280;38666;43.348;12.584;2023-04-24T11:45:11;94948.97;;;19.27;41.01
52797;BME280;38666;43.348;12.584;2023-04-24T11:47:38;94963.09;;;18.64;42.77
52797;BME280;38666;43.348;12.584;2023-04-24T11:50:06;94955.81;;;18.27;42.18
52797;BME280;38666;43.348;12.584;2023-04-24T11:52:33;94954.47;;;18.47;43.64
52797;BME280;38666;43.348;12.584;2023-04-24T11:55:01;94931.19;;;19.79;40.00
52797;BME280;38666;43.348;12.584;2023-04-24T11:57:27;94936.84;;;18.84;42.43
52797;BME280;38666;43.348;12.584;2023-04-24T11:59:58;94941.84;;;20.01;40.68
52797;BME280;38666;43.348;12.584;2023-04-24T12:02:24;94936.53;;;20.96;38.72
52797;BME280;38666;43.348;12.584;2023-04-24T12:04:52;94928.03;;;21.59;36.80
52797;BME280;38666;43.348;12.584;2023-04-24T12:07:18;94922.84;;;20.92;37.64
52797;BME280;38666;43.348;12.584;2023-04-24T12:09:48;94933.41;;;21.36;36.58
52797;BME280;38666;43.348;12.584;2023-04-24T12:12:16;94936.09;;;20.41;38.86
52797;BME280;38666;43.348;12.584;2023-04-24T12:14:47;94933.03;;;20.96;37.11
52797;BME280;38666;43.348;12.584;2023-04-24T12:17:13;94917.25;;;22.43;36.72
52797;BME280;38666;43.348;12.584;2023-04-24T12:19:45;94918.78;;;21.68;36.09
52797;BME280;38666;43.348;12.584;2023-04-24T12:22:10;94925.75;;;20.56;38.03
52797;BME280;38666;43.348;12.584;2023-04-24T12:24:58;94911.06;;;20.98;37.59
52797;BME280;38666;43.348;12.584;2023-04-24T12:27:24;94908.59;;;22.96;33.70
52797;BME280;38666;43.348;12.584;2023-04-24T12:29:57;94919.59;;;23.40;34.56
52797;BME280;38666;43.348;12.584;2023-04-24T12:32:24;94905.41;;;24.18;34.25
52797;BME280;38666;43.348;12.584;2023-04-24T12:34:50;94899.41;;;25.52;31.21
52797;BME280;38666;43.348;12.584;2023-04-24T12:37:17;94900.22;;;22.90;34.03
52797;BME280;38666;43.348;12.584;2023-04-24T12:40:08;94896.94;;;21.87;36.38
52797;BME280;38666;43.348;12.584;2023-04-24T12:42:35;94890.44;;;23.24;34.13
52797;BME280;38666;43.348;12.584;2023-04-24T12:45:06;94903.81;;;24.40;31.67
52797;BME280;38666;43.348;12.584;2023-04-24T12:47:32;94890.50;;;23.47;33.83
52797;BME280;38666;43.348;12.584;2023-04-24T12:49:59;94894.50;;;24.03;31.91
52797;BME280;38666;43.348;12.584;2023-04-24T12:52:25;94876.47;;;24.21;31.93
52797;BME280;38666;43.348;12.584;2023-04-24T12:54:56;94890.41;;;23.01;32.43
52797;BME280;38666;43.348;12.584;2023-04-24T12:57:22;94886.69;;;23.50;33.32
52797;BME280;38666;43.348;12.584;2023-04-24T12:59:48;94875.97;;;24.23;31.83
52797;BME280;38666;43.348;12.584;2023-04-24T13:02:13;94887.88;;;24.17;31.29
52797;BME280;38666;43.348;12.584;2023-04-24T13:04:42;94873.09;;;24.46;31.54
52797;BME280;38666;43.348;12.584;2023-04-24T13:07:07;94868.97;;;23.70;32.19
52797;BME280;38666;43.348;12.584;2023-04-24T13:09:34;94872.19;;;25.22;31.51
52797;BME280;38666;43.348;12.584;2023-04-24T13:12:00;94867.56;;;26.86;28.12
52797;BME280;38666;43.348;12.584;2023-04-24T13:14:26;94865.25;;;24.98;30.98
52797;BME280;38666;43.348;12.584;2023-04-24T13:16:51;94868.88;;;25.23;30.40
52797;BME280;38666;43.348;12.584;2023-04-24T13:19:17;94865.34;;;26.60;27.58
52797;BME280;38666;43.348;12.584;2023-04-24T13:21:43;94863.91;;;25.78;28.44
52797;BME280;38666;43.348;12.584;2023-04-24T13:24:09;94874.72;;;23.20;31.63
52797;BME280;38666;43.348;12.584;2023-04-24T13:26:34;94856.09;;;21.93;35.00
52797;BME280;38666;43.348;12.584;2023-04-24T13:29:00;94868.31;;;21.37;36.59
52797;BME280;38666;43.348;12.584;2023-04-24T13:31:25;94859.28;;;21.80;36.82
52797;BME280;38666;43.348;12.584;2023-04-24T13:33:51;94863.72;;;21.34;35.40
52797;BME280;38666;43.348;12.584;2023-04-24T13:36:16;94870.13;;;21.46;36.34
52797;BME280;38666;43.348;12.584;2023-04-24T13:38:43;94860.47;;;24.33;33.12
52797;BME280;38666;43.348;12.584;2023-04-24T13:41:09;94847.25;;;24.39;30.70
52797;BME280;38666;43.348;12.584;2023-04-24T13:43:35;94856.19;;;24.80;30.91
52797;BME280;38666;43.348;12.584;2023-04-24T13:46:01;94857.41;;;24.31;31.85
52797;BME280;38666;43.348;12.584;2023-04-24T13:48:28;94851.09;;;24.31;32.63
52797;BME280;38666;43.348;12.584;2023-04-24T13:50:54;94858.47;;;27.19;29.47
52797;BME280;38666;43.348;12.584;2023-04-24T13:53:19;94860.47;;;25.66;30.19
52797;BME280;38666;43.348;12.584;2023-04-24T13:55:45;94866.16;;;23.64;32.20
52797;BME280;38666;43.348;12.584;2023-04-24T13:58:10;94867.00;;;25.01;30.26
52797;BME280;38666;43.348;12.584;2023-04-24T14:00:36;94854.53;;;25.75;29.36
52797;BME280;38666;43.348;12.584;2023-04-24T14:03:01;94848.88;;;26.06;28.76
52797;BME280;38666;43.348;12.584;2023-04-24T14:05:27;94855.88;;;24.95;30.38
52797;BME280;38666;43.348;12.584;2023-04-24T14:07:52;94864.28;;;22.14;34.97
52797;BME280;38666;43.348;12.584;2023-04-24T14:10:18;94857.19;;;22.80;34.93
52797;BME280;38666;43.348;12.584;2023-04-24T14:12:43;94852.50;;;23.66;33.94
52797;BME280;38666;43.348;12.584;2023-04-24T14:15:09;94848.84;;;26.12;30.23
52797;BME280;38666;43.348;12.584;2023-04-24T14:17:35;94843.81;;;25.79;30.16
52797;BME280;38666;43.348;12.584;2023-04-24T14:20:01;94861.34;;;27.79;27.54
52797;BME280;38666;43.348;12.584;2023-04-24T14:22:27;94854.41;;;24.17;31.85
52797;BME280;38666;43.348;12.584;2023-04-24T14:24:52;94858.94;;;22.10;34.92
52797;BME280;38666;43.348;12.584;2023-04-24T14:27:17;94847.34;;;22.90;34.36
52797;BME280;38666;43.348;12.584;2023-04-24T14:29:43;94846.28;;;24.79;31.86
52797;BME280;38666;43.348;12.584;2023-04-24T14:32:10;94851.09;;;25.57;31.01
52797;BME280;38666;43.348;12.584;2023-04-24T14:34:35;94850.66;;;26.53;29.92
52797;BME280;38666;43.348;12.584;2023-04-24T14:37:01;94858.50;;;26.36;30.09
52797;BME280;38666;43.348;12.584;2023-04-24T14:39:27;94858.78;;;27.15;28.46
52797;BME280;38666;43.348;12.584;2023-04-24T14:41:52;94857.09;;;25.73;30.38
52797;BME280;38666;43.348;12.584;2023-04-24T14:44:17;94850.56;;;26.15;29.90
52797;BME280;38666;43.348;12.584;2023-04-24T14:46:43;94848.03;;;27.65;28.24
52797;BME280;38666;43.348;12.584;2023-04-24T14:49:08;94841.91;;;26.63;29.34
52797;BME280;38666;43.348;12.584;2023-04-24T14:51:35;94838.28;;;27.99;27.99
52797;BME280;38666;43.348;12.584;2023-04-24T14:54:01;94835.69;;;26.70;29.05
52797;BME280;38666;43.348;12.584;2023-04-24T14:56:26;94842.94;;;25.59;30.48
52797;BME280;38666;43.348;12.584;2023-04-24T14:58:52;94845.38;;;27.08;28.69
52797;BME280;38666;43.348;12.584;2023-04-24T15:01:18;94841.84;;;27.40;28.50
52797;BME280;38666;43.348;12.584;2023-04-24T15:03:43;94840.00;;;26.90;29.32
52797;BME280;38666;43.348;12.584;2023-04-24T15:06:09;94844.31;;;27.76;27.55
52797;BME280;38666;43.348;12.584;2023-04-24T15:08:34;94837.34;;;25.59;30.63
52797;BME280;38666;43.348;12.584;2023-04-24T15:11:00;94836.50;;;25.40;30.86
52797;BME280;38666;43.348;12.584;2023-04-24T15:13:25;94840.44;;;26.12;30.19
52797;BME280;38666;43.348;12.584;2023-04-24T15:15:51;94849.63;;;26.56;28.71
52797;BME280;38666;43.348;12.584;2023-04-24T15:18:16;94848.84;;;26.12;29.13
52797;BME280;38666;43.348;12.584;2023-04-24T15:20:41;94848.09;;;26.75;29.68
52797;BME280;38666;43.348;12.584;2023-04-24T15:23:08;94848.78;;;26.42;29.24
52797;BME280;38666;43.348;12.584;2023-04-24T15:25:34;94845.09;;;24.69;31.99
52797;BME280;38666;43.348;12.584;2023-04-24T15:27:59;94855.47;;;25.83;30.83
52797;BME280;38666;43.348;12.584;2023-04-24T15:30:26;94846.25;;;27.82;28.43
52797;BME280;38666;43.348;12.584;2023-04-24T15:32:51;94850.81;;;27.00;28.74
52797;BME280;38666;43.348;12.584;2023-04-24T15:35:17;94855.59;;;26.66;29.14
52797;BME280;38666;43.348;12.584;2023-04-24T15:37:43;94856.72;;;26.96;29.06
52797;BME280;38666;43.348;12.584;2023-04-24T15:40:09;94870.72;;;26.07;30.06
52797;BME280;38666;43.348;12.584;2023-04-24T15:42:36;94867.91;;;26.38;30.57
52797;BME280;38666;43.348;12.584;2023-04-24T15:45:02;94867.69;;;26.55;29.45
52797;BME280;38666;43.348;12.584;2023-04-24T15:47:28;94876.00;;;24.00;33.83
52797;BME280;38666;43.348;12.584;2023-04-24T15:49:54;94885.91;;;23.55;34.50
52797;BME280;38666;43.348;12.584;2023-04-24T15:52:20;94876.16;;;21.44;37.71
52797;BME280;38666;43.348;12.584;2023-04-24T15:54:46;94872.53;;;21.64;37.57
52797;BME280;38666;43.348;12.584;2023-04-24T15:57:12;94881.09;;;20.33;40.02
52797;BME280;38666;43.348;12.584;2023-04-24T15:59:38;94890.63;;;22.85;36.54
52797;BME280;38666;43.348;12.584;2023-04-24T16:02:03;94885.53;;;25.04;31.68
52797;BME280;38666;43.348;12.584;2023-04-24T16:04:29;94881.13;;;25.51;30.13
52797;BME280;38666;43.348;12.584;2023-04-24T16:06:55;94876.13;;;25.44;29.04
52797;BME280;38666;43.348;12.584;2023-04-24T16:09:22;94892.72;;;25.30;29.56
52797;BME280;38666;43.348;12.584;2023-04-24T16:11:47;94897.72;;;22.98;32.13
52797;BME280;38666;43.348;12.584;2023-04-24T16:14:13;94889.34;;;20.49;37.03
52797;BME280;38666;43.348;12.584;2023-04-24T16:16:38;94891.72;;;19.84;39.10
52797;BME280;38666;43.348;12.584;2023-04-24T16:19:04;94893.88;;;19.74;39.66
52797;BME280;38666;43.348;12.584;2023-04-24T16:21:31;94895.97;;;21.25;37.15
52797;BME280;38666;43.348;12.584;2023-04-24T16:23:56;94890.81;;;22.15;35.73
52797;BME280;38666;43.348;12.584;2023-04-24T16:26:22;94901.19;;;22.64;34.95
52797;BME280;38666;43.348;12.584;2023-04-24T16:28:47;94894.59;;;22.67;34.92
52797;BME280;38666;43.348;12.584;2023-04-24T16:31:13;94905.69;;;23.57;33.21
52797;BME280;38666;43.348;12.584;2023-04-24T16:33:38;94900.47;;;24.47;32.20
52797;BME280;38666;43.348;12.584;2023-04-24T16:36:04;94903.66;;;23.75;32.78
52797;BME280;38666;43.348;12.584;2023-04-24T16:38:30;94898.59;;;23.67;33.15
52797;BME280;38666;43.348;12.584;2023-04-24T16:40:55;94913.84;;;22.21;36.05
52797;BME280;38666;43.348;12.584;2023-04-24T16:43:21;94913.69;;;22.42;35.99
52797;BME280;38666;43.348;12.584;2023-04-24T16:45:46;94904.09;;;21.99;36.68
52797;BME280;38666;43.348;12.584;2023-04-24T16:48:12;94917.38;;;22.66;35.40
52797;BME280;38666;43.348;12.584;2023-04-24T16:50:37;94915.88;;;22.70;35.14
52797;BME280;38666;43.348;12.584;2023-04-24T16:53:03;94919.44;;;21.57;36.61
52797;BME280;38666;43.348;12.584;2023-04-24T16:55:28;94925.59;;;20.45;38.09
52797;BME280;38666;43.348;12.584;2023-04-24T16:57:53;94924.63;;;19.61;40.20
52797;BME280;38666;43.348;12.584;2023-04-24T17:00:19;94938.19;;;19.13;41.21
52797;BME280;38666;43.348;12.584;2023-04-24T17:02:45;94932.75;;;18.80;41.92
52797;BME280;38666;43.348;12.584;2023-04-24T17:05:14;94936.56;;;18.43;42.68
52797;BME280;38666;43.348;12.584;2023-04-24T17:07:39;94936.44;;;18.37;41.85
52797;BME280;38666;43.348;12.584;2023-04-24T17:10:06;94936.25;;;18.07;43.10
52797;BME280;38666;43.348;12.584;2023-04-24T17:12:33;94945.38;;;17.88;43.86
52797;BME280;38666;43.348;12.584;2023-04-24T17:14:58;94943.44;;;17.79;44.22
52797;BME280;38666;43.348;12.584;2023-04-24T17:17:24;94952.56;;;17.52;45.48
52797;BME280;38666;43.348;12.584;2023-04-24T17:19:50;94946.75;;;17.40;45.85
52797;BME280;38666;43.348;12.584;2023-04-24T17:22:16;94950.59;;;17.43;46.01
52797;BME280;38666;43.348;12.584;2023-04-24T17:24:41;94959.06;;;17.20;46.84
52797;BME280;38666;43.348;12.584;2023-04-24T17:27:07;94962.13;;;17.13;47.66
52797;BME280;38666;43.348;12.584;2023-04-24T17:29:32;94968.25;;;17.17;47.80
52797;BME280;38666;43.348;12.584;2023-04-24T17:31:58;94963.22;;;17.16;48.05
52797;BME280;38666;43.348;12.584;2023-04-24T17:34:23;94967.03;;;17.00;48.50
52797;BME280;38666;43.348;12.584;2023-04-24T17:36:49;94970.69;;;16.87;49.03
52797;BME280;38666;43.348;12.584;2023-04-24T17:39:14;94969.16;;;16.77;49.77
52797;BME280;38666;43.348;12.584;2023-04-24T17:41:40;94971.31;;;16.63;50.48
52797;BME280;38666;43.348;12.584;2023-04-24T17:44:07;94975.25;;;16.43;51.25
52797;BME280;38666;43.348;12.584;2023-04-24T17:46:33;94980.63;;;16.47;51.15
52797;BME280;38666;43.348;12.584;2023-04-24T17:48:58;94975.53;;;16.36;52.02
52797;BME280;38666;43.348;12.584;2023-04-24T17:51:24;94965.59;;;16.29;52.42
52797;BME280;38666;43.348;12.584;2023-04-24T17:53:50;94974.59;;;16.20;52.53
52797;BME280;38666;43.348;12.584;2023-04-24T17:56:16;94977.78;;;16.19;52.77
52797;BME280;38666;43.348;12.584;2023-04-24T17:58:42;94982.78;;;16.02;54.35
52797;BME280;38666;43.348;12.584;2023-04-24T18:01:08;94979.50;;;15.94;53.72
52797;BME280;38666;43.348;12.584;2023-04-24T18:03:33;94989.84;;;16.03;53.19
52797;BME280;38666;43.348;12.584;2023-04-24T18:05:59;94985.00;;;15.94;53.50
52797;BME280;38666;43.348;12.584;2023-04-24T18:08:24;94986.06;;;15.87;53.86
52797;BME280;38666;43.348;12.584;2023-04-24T18:10:50;94998.63;;;15.88;54.21
52797;BME280;38666;43.348;12.584;2023-04-24T18:13:15;94997.75;;;15.69;55.14
52797;BME280;38666;43.348;12.584;2023-04-24T18:15:41;95005.75;;;15.53;56.34
52797;BME280;38666;43.348;12.584;2023-04-24T18:18:08;95005.56;;;15.48;56.58
52797;BME280;38666;43.348;12.584;2023-04-24T18:20:33;95010.25;;;15.38;56.82
52797;BME280;38666;43.348;12.584;2023-04-24T18:22:59;95014.63;;;15.26;57.51
52797;BME280;38666;43.348;12.584;2023-04-24T18:25:24;95015.63;;;15.19;57.86
52797;BME280;38666;43.348;12.584;2023-04-24T18:27:51;95017.75;;;15.15;58.75
52797;BME280;38666;43.348;12.584;2023-04-24T18:30:18;95021.38;;;15.12;59.44
52797;BME280;38666;43.348;12.584;2023-04-24T18:32:47;95015.47;;;15.00;59.49
52797;BME280;38666;43.348;12.584;2023-04-24T18:35:12;95028.91;;;14.98;59.53
52797;BME280;38666;43.348;12.584;2023-04-24T18:37:38;95036.19;;;14.92;61.25
52797;BME280;38666;43.348;12.584;2023-04-24T18:40:05;95039.81;;;14.89;60.95
52797;BME280;38666;43.348;12.584;2023-04-24T18:42:30;95045.53;;;14.82;61.55
52797;BME280;38666;43.348;12.584;2023-04-24T18:44:56;95045.97;;;14.80;61.54
52797;BME280;38666;43.348;12.584;2023-04-24T18:47:26;95057.50;;;14.75;61.81
52797;BME280;38666;43.348;12.584;2023-04-24T18:49:52;95068.41;;;14.78;61.47
